KIAG/IAG METAR and TAF weather

Enter ICAO airport designator
Station Type Date Time Source
KIAG METAR 2019/04/23 03:53 UTC NOAA

KIAG 230353Z AUTO 10006KT 10SM CLR 11/07 A3008 RMK AO2 SLP191 T01060067


Station Type Date Time Source
KIAG Decoded METAR 2019/04/23 03:53 UTC NOAA

NIAGARA FALLS INTERNATIONAL AIRPORT, NY, United States (KIAG) 43-07N 078-56W 182M
Apr 22, 2019 - 11:53 PM EDT / 2019.04.23 0353 UTC
Wind: from the E (100 degrees) at 7 MPH (6 KT):0
Visibility: 10 mile(s):0
Sky conditions: clear
Temperature: 51.1 F (10.6 C)
Dew Point: 44.1 F (6.7 C)
Relative Humidity: 76%
Pressure (altimeter): 30.08 in. Hg (1018 hPa)
ob: KIAG 230353Z AUTO 10006KT 10SM CLR 11/07 A3008 RMK AO2 SLP191 T01060067
cycle: 4

Station Type Date Time Source
KIAG TAF 2019/04/23 03:36 UTC NOAA

TAF
AMD KIAG 230233Z 2303/2324 07004KT P6SM SCT150
FM231400 18010G21KT P6SM SCT150 BKN250
FM231900 20018G32KT P6SM VCSH BKN035
FM232100 22017G29KT 6SM -SHRA BR OVC020
FM232200 24016G25KT P6SM OVC050

Example: see airport list